sensor_id;sensor_type;location;lat;lon;timestamp;P1;durP1;ratioP1;P2;durP2;ratioP2
261;SDS011;114;48.260;10.988;2024-03-23T00:55:04;2.37;;;2.27;;
261;SDS011;114;48.260;10.988;2024-03-23T00:57:30;2.90;;;2.60;;
261;SDS011;114;48.260;10.988;2024-03-23T00:59:55;5.57;;;2.90;;
261;SDS011;114;48.260;10.988;2024-03-23T01:02:21;4.00;;;2.43;;
261;SDS011;114;48.260;10.988;2024-03-23T01:04:47;1.90;;;1.80;;
261;SDS011;114;48.260;10.988;2024-03-23T01:07:13;1.77;;;1.77;;
261;SDS011;114;48.260;10.988;2024-03-23T01:09:38;2.67;;;2.47;;
261;SDS011;114;48.260;10.988;2024-03-23T01:12:04;7.50;;;1.80;;
261;SDS011;114;48.260;10.988;2024-03-23T01:14:30;4.43;;;2.40;;
261;SDS011;114;48.260;10.988;2024-03-23T01:16:58;5.23;;;2.00;;
261;SDS011;114;48.260;10.988;2024-03-23T01:19:24;3.37;;;2.10;;
261;SDS011;114;48.260;10.988;2024-03-23T01:21:50;4.70;;;2.80;;
261;SDS011;114;48.260;10.988;2024-03-23T01:24:18;2.30;;;2.10;;
261;SDS011;114;48.260;10.988;2024-03-23T01:26:44;2.40;;;2.03;;
261;SDS011;114;48.260;10.988;2024-03-23T01:29:10;1.93;;;1.70;;
261;SDS011;114;48.260;10.988;2024-03-23T01:31:36;2.07;;;1.87;;
261;SDS011;114;48.260;10.988;2024-03-23T01:34:03;6.20;;;1.83;;
261;SDS011;114;48.260;10.988;2024-03-23T01:36:29;3.00;;;2.23;;
261;SDS011;114;48.260;10.988;2024-03-23T01:38:55;1.57;;;1.57;;
261;SDS011;114;48.260;10.988;2024-03-23T01:41:21;3.30;;;2.10;;
261;SDS011;114;48.260;10.988;2024-03-23T01:43:46;2.90;;;1.90;;
261;SDS011;114;48.260;10.988;2024-03-23T01:46:12;4.00;;;1.80;;
261;SDS011;114;48.260;10.988;2024-03-23T01:48:38;2.10;;;2.00;;
261;SDS011;114;48.260;10.988;2024-03-23T01:51:04;1.90;;;1.80;;
261;SDS011;114;48.260;10.988;2024-03-23T01:53:30;3.10;;;2.50;;
261;SDS011;114;48.260;10.988;2024-03-23T01:55:58;2.00;;;1.90;;
261;SDS011;114;48.260;10.988;2024-03-23T01:58:24;1.83;;;1.73;;
261;SDS011;114;48.260;10.988;2024-03-23T02:00:49;3.23;;;2.90;;
261;SDS011;114;48.260;10.988;2024-03-23T02:03:22;3.33;;;1.73;;
261;SDS011;114;48.260;10.988;2024-03-23T02:05:49;2.37;;;2.17;;
261;SDS011;114;48.260;10.988;2024-03-23T02:08:15;3.93;;;2.30;;
261;SDS011;114;48.260;10.988;2024-03-23T02:10:43;2.10;;;2.00;;
261;SDS011;114;48.260;10.988;2024-03-23T02:13:09;2.30;;;2.10;;
261;SDS011;114;48.260;10.988;2024-03-23T02:15:35;1.63;;;1.53;;
261;SDS011;114;48.260;10.988;2024-03-23T02:18:03;2.17;;;2.07;;
261;SDS011;114;48.260;10.988;2024-03-23T02:20:28;2.23;;;2.07;;
261;SDS011;114;48.260;10.988;2024-03-23T02:22:54;13.13;;;2.20;;
261;SDS011;114;48.260;10.988;2024-03-23T02:25:20;2.73;;;2.53;;
261;SDS011;114;48.260;10.988;2024-03-23T02:27:46;3.40;;;2.40;;
261;SDS011;114;48.260;10.988;2024-03-23T02:30:12;2.37;;;2.10;;
261;SDS011;114;48.260;10.988;2024-03-23T02:32:39;2.43;;;2.23;;
261;SDS011;114;48.260;10.988;2024-03-23T02:35:07;2.40;;;2.30;;
261;SDS011;114;48.260;10.988;2024-03-23T02:37:35;4.20;;;2.37;;
261;SDS011;114;48.260;10.988;2024-03-23T02:40:02;3.53;;;2.17;;
261;SDS011;114;48.260;10.988;2024-03-23T02:42:28;6.00;;;2.70;;
261;SDS011;114;48.260;10.988;2024-03-23T02:44:54;4.87;;;2.30;;
261;SDS011;114;48.260;10.988;2024-03-23T02:47:20;2.10;;;1.90;;
261;SDS011;114;48.260;10.988;2024-03-23T02:49:45;2.60;;;1.90;;
261;SDS011;114;48.260;10.988;2024-03-23T02:52:11;4.30;;;2.20;;
261;SDS011;114;48.260;10.988;2024-03-23T02:54:37;1.80;;;1.70;;
261;SDS011;114;48.260;10.988;2024-03-23T02:57:03;2.23;;;1.90;;
261;SDS011;114;48.260;10.988;2024-03-23T02:59:30;2.27;;;2.07;;
261;SDS011;114;48.260;10.988;2024-03-23T03:01:55;2.00;;;1.87;;
261;SDS011;114;48.260;10.988;2024-03-23T03:04:21;1.80;;;1.70;;
261;SDS011;114;48.260;10.988;2024-03-23T03:06:47;2.43;;;2.20;;
261;SDS011;114;48.260;10.988;2024-03-23T03:09:13;1.70;;;1.60;;
261;SDS011;114;48.260;10.988;2024-03-23T03:11:39;2.80;;;2.37;;
261;SDS011;114;48.260;10.988;2024-03-23T03:14:04;2.60;;;2.40;;
261;SDS011;114;48.260;10.988;2024-03-23T03:16:33;4.83;;;2.27;;
261;SDS011;114;48.260;10.988;2024-03-23T03:18:59;2.20;;;1.80;;
261;SDS011;114;48.260;10.988;2024-03-23T03:21:25;2.00;;;1.90;;
261;SDS011;114;48.260;10.988;2024-03-23T03:23:52;2.13;;;1.63;;
261;SDS011;114;48.260;10.988;2024-03-23T03:26:19;1.87;;;1.63;;
261;SDS011;114;48.260;10.988;2024-03-23T03:28:45;3.70;;;2.70;;
261;SDS011;114;48.260;10.988;2024-03-23T03:31:14;2.63;;;1.80;;
261;SDS011;114;48.260;10.988;2024-03-23T03:33:40;3.67;;;2.63;;
261;SDS011;114;48.260;10.988;2024-03-23T03:36:06;2.77;;;2.57;;
261;SDS011;114;48.260;10.988;2024-03-23T03:38:32;16.53;;;2.70;;
261;SDS011;114;48.260;10.988;2024-03-23T03:41:00;2.43;;;2.33;;
261;SDS011;114;48.260;10.988;2024-03-23T03:43:28;4.67;;;2.63;;
261;SDS011;114;48.260;10.988;2024-03-23T03:45:54;2.30;;;2.20;;
261;SDS011;114;48.260;10.988;2024-03-23T03:48:22;3.77;;;3.40;;
261;SDS011;114;48.260;10.988;2024-03-23T03:50:47;3.00;;;2.30;;
261;SDS011;114;48.260;10.988;2024-03-23T03:53:14;2.73;;;2.40;;
261;SDS011;114;48.260;10.988;2024-03-23T03:55:40;7.17;;;2.40;;
261;SDS011;114;48.260;10.988;2024-03-23T03:58:12;2.57;;;2.37;;
261;SDS011;114;48.260;10.988;2024-03-23T04:00:37;2.50;;;2.40;;
261;SDS011;114;48.260;10.988;2024-03-23T04:03:03;2.43;;;2.27;;
261;SDS011;114;48.260;10.988;2024-03-23T04:05:29;4.53;;;2.43;;
261;SDS011;114;48.260;10.988;2024-03-23T04:07:55;6.30;;;2.50;;
261;SDS011;114;48.260;10.988;2024-03-23T04:10:21;2.97;;;2.50;;
261;SDS011;114;48.260;10.988;2024-03-23T04:12:47;5.67;;;2.03;;
261;SDS011;114;48.260;10.988;2024-03-23T04:15:13;2.37;;;2.17;;
261;SDS011;114;48.260;10.988;2024-03-23T04:17:39;5.10;;;2.33;;
261;SDS011;114;48.260;10.988;2024-03-23T04:20:06;2.60;;;2.40;;
261;SDS011;114;48.260;10.988;2024-03-23T04:22:36;2.87;;;2.67;;
261;SDS011;114;48.260;10.988;2024-03-23T04:25:02;2.10;;;2.00;;
261;SDS011;114;48.260;10.988;2024-03-23T04:27:34;2.23;;;2.13;;
261;SDS011;114;48.260;10.988;2024-03-23T04:30:00;5.50;;;2.80;;
261;SDS011;114;48.260;10.988;2024-03-23T04:32:27;3.37;;;2.27;;
261;SDS011;114;48.260;10.988;2024-03-23T04:34:53;2.50;;;2.30;;
261;SDS011;114;48.260;10.988;2024-03-23T04:37:20;3.63;;;2.07;;
261;SDS011;114;48.260;10.988;2024-03-23T04:39:46;2.50;;;2.30;;
261;SDS011;114;48.260;10.988;2024-03-23T04:42:14;4.20;;;2.77;;
261;SDS011;114;48.260;10.988;2024-03-23T04:44:40;3.73;;;2.23;;
261;SDS011;114;48.260;10.988;2024-03-23T04:47:06;1.87;;;1.77;;
261;SDS011;114;48.260;10.988;2024-03-23T04:49:33;2.70;;;1.73;;
261;SDS011;114;48.260;10.988;2024-03-23T04:51:58;2.70;;;1.87;;
261;SDS011;114;48.260;10.988;2024-03-23T04:54:24;2.70;;;2.27;;
261;SDS011;114;48.260;10.988;2024-03-23T04:56:50;1.60;;;1.50;;
261;SDS011;114;48.260;10.988;2024-03-23T04:59:16;1.40;;;1.30;;
261;SDS011;114;48.260;10.988;2024-03-23T05:01:41;2.63;;;1.90;;
261;SDS011;114;48.260;10.988;2024-03-23T05:04:09;2.33;;;1.40;;
261;SDS011;114;48.260;10.988;2024-03-23T05:06:35;1.30;;;1.20;;
261;SDS011;114;48.260;10.988;2024-03-23T05:09:00;1.40;;;1.40;;
261;SDS011;114;48.260;10.988;2024-03-23T05:11:33;1.40;;;1.30;;
261;SDS011;114;48.260;10.988;2024-03-23T05:13:59;5.70;;;1.37;;
261;SDS011;114;48.260;10.988;2024-03-23T05:16:28;2.80;;;1.70;;
261;SDS011;114;48.260;10.988;2024-03-23T05:18:54;2.00;;;1.80;;
261;SDS011;114;48.260;10.988;2024-03-23T05:21:32;1.90;;;1.27;;
261;SDS011;114;48.260;10.988;2024-03-23T05:26:29;1.30;;;1.20;;
261;SDS011;114;48.260;10.988;2024-03-23T05:28:54;2.90;;;1.37;;
261;SDS011;114;48.260;10.988;2024-03-23T05:31:24;1.73;;;1.57;;
261;SDS011;114;48.260;10.988;2024-03-23T05:33:53;1.83;;;1.37;;
261;SDS011;114;48.260;10.988;2024-03-23T05:36:19;3.20;;;1.73;;
261;SDS011;114;48.260;10.988;2024-03-23T05:38:46;2.07;;;1.47;;
261;SDS011;114;48.260;10.988;2024-03-23T05:41:11;1.93;;;1.70;;
261;SDS011;114;48.260;10.988;2024-03-23T05:43:39;5.17;;;1.50;;
261;SDS011;114;48.260;10.988;2024-03-23T05:46:05;1.67;;;1.37;;
261;SDS011;114;48.260;10.988;2024-03-23T05:48:31;5.90;;;1.90;;
261;SDS011;114;48.260;10.988;2024-03-23T05:50:56;2.80;;;1.70;;
261;SDS011;114;48.260;10.988;2024-03-23T05:53:23;2.00;;;1.30;;
261;SDS011;114;48.260;10.988;2024-03-23T05:55:50;2.70;;;1.40;;
261;SDS011;114;48.260;10.988;2024-03-23T05:58:18;2.10;;;1.90;;
261;SDS011;114;48.260;10.988;2024-03-23T06:00:45;1.83;;;1.10;;
261;SDS011;114;48.260;10.988;2024-03-23T06:03:11;2.90;;;1.20;;
261;SDS011;114;48.260;10.988;2024-03-23T06:05:41;1.07;;;1.00;;
261;SDS011;114;48.260;10.988;2024-03-23T06:08:10;1.93;;;1.30;;
261;SDS011;114;48.260;10.988;2024-03-23T06:10:38;1.87;;;1.10;;
261;SDS011;114;48.260;10.988;2024-03-23T06:13:04;2.17;;;1.57;;
261;SDS011;114;48.260;10.988;2024-03-23T06:15:33;1.83;;;1.30;;
261;SDS011;114;48.260;10.988;2024-03-23T06:18:02;1.40;;;1.30;;
261;SDS011;114;48.260;10.988;2024-03-23T06:20:30;3.13;;;1.53;;
261;SDS011;114;48.260;10.988;2024-03-23T06:22:56;2.30;;;1.50;;
261;SDS011;114;48.260;10.988;2024-03-23T06:25:22;2.03;;;1.90;;
261;SDS011;114;48.260;10.988;2024-03-23T06:27:48;2.10;;;1.60;;
261;SDS011;114;48.260;10.988;2024-03-23T06:30:14;6.93;;;1.83;;
261;SDS011;114;48.260;10.988;2024-03-23T06:32:40;8.83;;;2.37;;
261;SDS011;114;48.260;10.988;2024-03-23T06:35:06;2.67;;;1.93;;
261;SDS011;114;48.260;10.988;2024-03-23T06:37:35;3.50;;;1.90;;
261;SDS011;114;48.260;10.988;2024-03-23T06:40:01;2.90;;;1.40;;
261;SDS011;114;48.260;10.988;2024-03-23T06:42:29;3.90;;;1.23;;
261;SDS011;114;48.260;10.988;2024-03-23T06:44:55;3.23;;;1.57;;
261;SDS011;114;48.260;10.988;2024-03-23T06:47:21;1.83;;;1.23;;
261;SDS011;114;48.260;10.988;2024-03-23T06:54:57;3.37;;;1.73;;
261;SDS011;114;48.260;10.988;2024-03-23T06:57:24;2.30;;;2.03;;
261;SDS011;114;48.260;10.988;2024-03-23T06:59:50;1.50;;;1.40;;
261;SDS011;114;48.260;10.988;2024-03-23T07:02:16;5.53;;;1.80;;
261;SDS011;114;48.260;10.988;2024-03-23T07:04:42;8.60;;;1.63;;
261;SDS011;114;48.260;10.988;2024-03-23T07:07:08;4.83;;;2.93;;
261;SDS011;114;48.260;10.988;2024-03-23T07:09:35;2.33;;;2.23;;
261;SDS011;114;48.260;10.988;2024-03-23T07:12:02;3.33;;;2.30;;
261;SDS011;114;48.260;10.988;2024-03-23T07:14:29;2.20;;;2.00;;
261;SDS011;114;48.260;10.988;2024-03-23T07:16:55;4.00;;;2.10;;
261;SDS011;114;48.260;10.988;2024-03-23T07:19:21;3.23;;;2.30;;
261;SDS011;114;48.260;10.988;2024-03-23T07:21:49;2.30;;;1.93;;
261;SDS011;114;48.260;10.988;2024-03-23T07:24:15;3.17;;;2.83;;
261;SDS011;114;48.260;10.988;2024-03-23T07:26:41;2.10;;;2.00;;
261;SDS011;114;48.260;10.988;2024-03-23T07:29:06;2.90;;;2.30;;
261;SDS011;114;48.260;10.988;2024-03-23T07:31:32;5.93;;;3.00;;
261;SDS011;114;48.260;10.988;2024-03-23T07:34:00;2.93;;;1.90;;
261;SDS011;114;48.260;10.988;2024-03-23T07:36:27;2.33;;;2.00;;
261;SDS011;114;48.260;10.988;2024-03-23T07:38:53;2.50;;;2.30;;
261;SDS011;114;48.260;10.988;2024-03-23T07:41:20;2.97;;;1.90;;
261;SDS011;114;48.260;10.988;2024-03-23T07:43:46;5.33;;;2.53;;
261;SDS011;114;48.260;10.988;2024-03-23T07:46:14;3.50;;;2.40;;
261;SDS011;114;48.260;10.988;2024-03-23T07:48:41;2.03;;;1.93;;
261;SDS011;114;48.260;10.988;2024-03-23T07:51:08;1.70;;;1.60;;
261;SDS011;114;48.260;10.988;2024-03-23T07:53:35;2.50;;;1.80;;
261;SDS011;114;48.260;10.988;2024-03-23T07:58:34;4.30;;;1.60;;
261;SDS011;114;48.260;10.988;2024-03-23T08:03:36;2.00;;;1.90;;
261;SDS011;114;48.260;10.988;2024-03-23T08:06:11;2.17;;;1.97;;
261;SDS011;114;48.260;10.988;2024-03-23T08:08:58;2.03;;;1.93;;
261;SDS011;114;48.260;10.988;2024-03-23T08:11:32;2.13;;;2.03;;
261;SDS011;114;48.260;10.988;2024-03-23T08:13:59;2.33;;;2.13;;
261;SDS011;114;48.260;10.988;2024-03-23T08:16:26;2.80;;;2.60;;
261;SDS011;114;48.260;10.988;2024-03-23T08:18:54;3.40;;;3.07;;
261;SDS011;114;48.260;10.988;2024-03-23T08:21:21;2.93;;;2.73;;
261;SDS011;114;48.260;10.988;2024-03-23T08:23:49;2.40;;;2.20;;
261;SDS011;114;48.260;10.988;2024-03-23T08:26:16;2.80;;;2.47;;
261;SDS011;114;48.260;10.988;2024-03-23T08:28:48;2.63;;;2.43;;
261;SDS011;114;48.260;10.988;2024-03-23T08:31:16;3.10;;;2.83;;
261;SDS011;114;48.260;10.988;2024-03-23T08:33:49;3.03;;;2.83;;
261;SDS011;114;48.260;10.988;2024-03-23T08:36:22;3.70;;;3.40;;
261;SDS011;114;48.260;10.988;2024-03-23T08:38:49;3.20;;;3.00;;
261;SDS011;114;48.260;10.988;2024-03-23T08:41:18;2.80;;;2.60;;
261;SDS011;114;48.260;10.988;2024-03-23T08:43:45;3.93;;;3.10;;
261;SDS011;114;48.260;10.988;2024-03-23T08:46:12;2.57;;;2.37;;
261;SDS011;114;48.260;10.988;2024-03-23T08:48:42;2.83;;;2.60;;
261;SDS011;114;48.260;10.988;2024-03-23T08:51:13;2.83;;;2.63;;
261;SDS011;114;48.260;10.988;2024-03-23T08:53:39;4.10;;;3.50;;
261;SDS011;114;48.260;10.988;2024-03-23T08:56:06;5.63;;;3.10;;
261;SDS011;114;48.260;10.988;2024-03-23T08:58:32;3.83;;;2.93;;
261;SDS011;114;48.260;10.988;2024-03-23T09:01:03;3.23;;;2.93;;
261;SDS011;114;48.260;10.988;2024-03-23T09:03:30;6.63;;;2.60;;
261;SDS011;114;48.260;10.988;2024-03-23T09:05:58;1.97;;;1.87;;
261;SDS011;114;48.260;10.988;2024-03-23T09:08:25;2.43;;;2.33;;
261;SDS011;114;48.260;10.988;2024-03-23T09:10:51;3.07;;;2.87;;
261;SDS011;114;48.260;10.988;2024-03-23T09:13:18;2.00;;;1.90;;
261;SDS011;114;48.260;10.988;2024-03-23T09:15:48;1.97;;;1.87;;
261;SDS011;114;48.260;10.988;2024-03-23T09:18:14;2.73;;;2.53;;
261;SDS011;114;48.260;10.988;2024-03-23T09:20:41;4.63;;;4.23;;
261;SDS011;114;48.260;10.988;2024-03-23T09:23:07;2.90;;;2.70;;
261;SDS011;114;48.260;10.988;2024-03-23T09:25:36;11.97;;;2.23;;
261;SDS011;114;48.260;10.988;2024-03-23T09:28:07;2.20;;;2.10;;
261;SDS011;114;48.260;10.988;2024-03-23T09:30:36;2.40;;;2.30;;
261;SDS011;114;48.260;10.988;2024-03-23T09:33:07;1.87;;;1.77;;
261;SDS011;114;48.260;10.988;2024-03-23T09:35:38;0.77;;;0.77;;
261;SDS011;114;48.260;10.988;2024-03-23T09:38:04;2.70;;;1.03;;
261;SDS011;114;48.260;10.988;2024-03-23T09:40:30;1.20;;;1.10;;
261;SDS011;114;48.260;10.988;2024-03-23T09:42:56;0.73;;;0.67;;
261;SDS011;114;48.260;10.988;2024-03-23T09:45:26;1.77;;;1.43;;
261;SDS011;114;48.260;10.988;2024-03-23T09:47:54;0.63;;;0.63;;
261;SDS011;114;48.260;10.988;2024-03-23T09:50:22;1.37;;;1.27;;
261;SDS011;114;48.260;10.988;2024-03-23T09:52:48;1.57;;;1.47;;
261;SDS011;114;48.260;10.988;2024-03-23T09:55:15;1.43;;;1.33;;
261;SDS011;114;48.260;10.988;2024-03-23T09:57:43;1.10;;;0.70;;
261;SDS011;114;48.260;10.988;2024-03-23T10:00:09;1.20;;;1.20;;
261;SDS011;114;48.260;10.988;2024-03-23T10:02:37;1.10;;;1.10;;
261;SDS011;114;48.260;10.988;2024-03-23T10:05:03;2.53;;;0.50;;
261;SDS011;114;48.260;10.988;2024-03-23T10:07:31;0.50;;;0.30;;
261;SDS011;114;48.260;10.988;2024-03-23T10:12:52;1.90;;;0.40;;
261;SDS011;114;48.260;10.988;2024-03-23T10:15:20;0.30;;;0.30;;
261;SDS011;114;48.260;10.988;2024-03-23T10:17:55;0.30;;;0.30;;
261;SDS011;114;48.260;10.988;2024-03-23T10:20:21;2.90;;;0.47;;
261;SDS011;114;48.260;10.988;2024-03-23T10:22:52;0.40;;;0.30;;
261;SDS011;114;48.260;10.988;2024-03-23T10:25:18;0.67;;;0.30;;
261;SDS011;114;48.260;10.988;2024-03-23T10:28:00;0.50;;;0.40;;
261;SDS011;114;48.260;10.988;2024-03-23T10:30:26;4.30;;;0.50;;
261;SDS011;114;48.260;10.988;2024-03-23T10:33:14;0.30;;;0.30;;
261;SDS011;114;48.260;10.988;2024-03-23T10:35:42;0.73;;;0.40;;
261;SDS011;114;48.260;10.988;2024-03-23T10:38:08;0.37;;;0.33;;
261;SDS011;114;48.260;10.988;2024-03-23T10:40:35;2.10;;;0.67;;
261;SDS011;114;48.260;10.988;2024-03-23T10:45:32;1.53;;;0.70;;
261;SDS011;114;48.260;10.988;2024-03-23T10:48:00;4.23;;;1.13;;
261;SDS011;114;48.260;10.988;2024-03-23T10:50:29;0.50;;;0.50;;
261;SDS011;114;48.260;10.988;2024-03-23T10:52:54;0.70;;;0.60;;
261;SDS011;114;48.260;10.988;2024-03-23T10:55:24;0.63;;;0.50;;
261;SDS011;114;48.260;10.988;2024-03-23T10:57:54;4.20;;;0.70;;
261;SDS011;114;48.260;10.988;2024-03-23T11:00:21;3.93;;;0.90;;
261;SDS011;114;48.260;10.988;2024-03-23T11:02:49;1.67;;;0.70;;
261;SDS011;114;48.260;10.988;2024-03-23T11:07:57;1.07;;;0.87;;
261;SDS011;114;48.260;10.988;2024-03-23T11:10:30;1.60;;;0.60;;
261;SDS011;114;48.260;10.988;2024-03-23T11:13:44;0.70;;;0.70;;
261;SDS011;114;48.260;10.988;2024-03-23T11:15:54;1.00;;;0.77;;
261;SDS011;114;48.260;10.988;2024-03-23T11:18:37;1.87;;;0.80;;
261;SDS011;114;48.260;10.988;2024-03-23T11:21:03;1.23;;;0.67;;
261;SDS011;114;48.260;10.988;2024-03-23T11:23:29;2.20;;;1.00;;
261;SDS011;114;48.260;10.988;2024-03-23T11:25:55;0.80;;;0.70;;
261;SDS011;114;48.260;10.988;2024-03-23T11:28:20;1.40;;;0.87;;
261;SDS011;114;48.260;10.988;2024-03-23T11:30:46;5.30;;;1.70;;
261;SDS011;114;48.260;10.988;2024-03-23T11:33:21;2.20;;;1.13;;
261;SDS011;114;48.260;10.988;2024-03-23T11:35:47;1.70;;;1.50;;
261;SDS011;114;48.260;10.988;2024-03-23T11:40:44;1.33;;;1.00;;
261;SDS011;114;48.260;10.988;2024-03-23T11:45:51;7.13;;;1.00;;
261;SDS011;114;48.260;10.988;2024-03-23T11:48:19;1.20;;;0.80;;
261;SDS011;114;48.260;10.988;2024-03-23T11:50:49;4.53;;;1.07;;
261;SDS011;114;48.260;10.988;2024-03-23T11:53:17;3.90;;;1.80;;
261;SDS011;114;48.260;10.988;2024-03-23T11:58:19;2.70;;;1.53;;
261;SDS011;114;48.260;10.988;2024-03-23T12:01:01;3.57;;;1.80;;
261;SDS011;114;48.260;10.988;2024-03-23T12:03:30;1.40;;;1.10;;
261;SDS011;114;48.260;10.988;2024-03-23T12:06:00;6.47;;;1.10;;
261;SDS011;114;48.260;10.988;2024-03-23T12:13:41;5.03;;;1.20;;
261;SDS011;114;48.260;10.988;2024-03-23T12:16:36;3.83;;;1.70;;
261;SDS011;114;48.260;10.988;2024-03-23T12:19:04;4.40;;;1.43;;
261;SDS011;114;48.260;10.988;2024-03-23T12:21:31;1.90;;;1.60;;
261;SDS011;114;48.260;10.988;2024-03-23T12:23:56;2.47;;;1.77;;
261;SDS011;114;48.260;10.988;2024-03-23T12:26:23;4.10;;;1.73;;
261;SDS011;114;48.260;10.988;2024-03-23T12:28:50;4.67;;;2.00;;
261;SDS011;114;48.260;10.988;2024-03-23T12:31:16;7.60;;;1.43;;
261;SDS011;114;48.260;10.988;2024-03-23T12:33:43;5.90;;;2.03;;
261;SDS011;114;48.260;10.988;2024-03-23T12:36:15;3.73;;;1.70;;
261;SDS011;114;48.260;10.988;2024-03-23T12:38:41;5.70;;;1.80;;
261;SDS011;114;48.260;10.988;2024-03-23T12:41:08;2.87;;;2.13;;
261;SDS011;114;48.260;10.988;2024-03-23T12:43:35;3.30;;;2.53;;
261;SDS011;114;48.260;10.988;2024-03-23T12:46:04;1.87;;;1.70;;
261;SDS011;114;48.260;10.988;2024-03-23T12:51:05;4.03;;;1.40;;
261;SDS011;114;48.260;10.988;2024-03-23T12:53:31;1.97;;;1.87;;
261;SDS011;114;48.260;10.988;2024-03-23T12:55:57;4.30;;;1.40;;
261;SDS011;114;48.260;10.988;2024-03-23T12:58:26;4.17;;;1.57;;
261;SDS011;114;48.260;10.988;2024-03-23T13:00:52;2.50;;;1.80;;
261;SDS011;114;48.260;10.988;2024-03-23T13:03:19;2.83;;;1.43;;
261;SDS011;114;48.260;10.988;2024-03-23T13:08:18;4.80;;;1.70;;
261;SDS011;114;48.260;10.988;2024-03-23T13:10:43;3.90;;;2.30;;
261;SDS011;114;48.260;10.988;2024-03-23T13:13:11;4.50;;;1.90;;
261;SDS011;114;48.260;10.988;2024-03-23T13:15:36;5.57;;;2.50;;
261;SDS011;114;48.260;10.988;2024-03-23T13:18:02;4.20;;;1.40;;
261;SDS011;114;48.260;10.988;2024-03-23T13:20:29;5.93;;;1.30;;
261;SDS011;114;48.260;10.988;2024-03-23T13:22:57;1.33;;;1.23;;
261;SDS011;114;48.260;10.988;2024-03-23T13:25:22;2.77;;;1.50;;
261;SDS011;114;48.260;10.988;2024-03-23T13:27:48;4.73;;;1.13;;
261;SDS011;114;48.260;10.988;2024-03-23T13:30:15;2.83;;;1.30;;
261;SDS011;114;48.260;10.988;2024-03-23T13:32:41;2.40;;;1.23;;
261;SDS011;114;48.260;10.988;2024-03-23T13:35:13;2.90;;;1.10;;
261;SDS011;114;48.260;10.988;2024-03-23T13:37:43;4.63;;;2.90;;
261;SDS011;114;48.260;10.988;2024-03-23T13:40:09;4.33;;;1.30;;
261;SDS011;114;48.260;10.988;2024-03-23T13:42:35;10.17;;;1.40;;
261;SDS011;114;48.260;10.988;2024-03-23T13:45:02;4.20;;;1.73;;
261;SDS011;114;48.260;10.988;2024-03-23T13:47:30;2.73;;;2.03;;
261;SDS011;114;48.260;10.988;2024-03-23T13:49:56;2.30;;;1.27;;
261;SDS011;114;48.260;10.988;2024-03-23T13:52:22;3.90;;;1.23;;
261;SDS011;114;48.260;10.988;2024-03-23T13:54:51;2.43;;;0.83;;
261;SDS011;114;48.260;10.988;2024-03-23T13:57:17;4.40;;;1.10;;
261;SDS011;114;48.260;10.988;2024-03-23T13:59:47;2.57;;;1.17;;
261;SDS011;114;48.260;10.988;2024-03-23T14:02:14;2.77;;;1.10;;
261;SDS011;114;48.260;10.988;2024-03-23T14:04:44;1.30;;;0.90;;
261;SDS011;114;48.260;10.988;2024-03-23T14:07:10;3.43;;;1.77;;
261;SDS011;114;48.260;10.988;2024-03-23T14:09:36;8.83;;;1.87;;
261;SDS011;114;48.260;10.988;2024-03-23T14:12:02;2.23;;;2.00;;
261;SDS011;114;48.260;10.988;2024-03-23T14:14:29;4.40;;;1.43;;
261;SDS011;114;48.260;10.988;2024-03-23T14:17:00;1.77;;;1.67;;
261;SDS011;114;48.260;10.988;2024-03-23T14:19:26;5.03;;;1.67;;
261;SDS011;114;48.260;10.988;2024-03-23T14:21:54;3.20;;;1.27;;
261;SDS011;114;48.260;10.988;2024-03-23T14:24:20;8.13;;;2.03;;
261;SDS011;114;48.260;10.988;2024-03-23T14:26:50;3.47;;;2.47;;
261;SDS011;114;48.260;10.988;2024-03-23T14:29:16;8.63;;;1.20;;
261;SDS011;114;48.260;10.988;2024-03-23T14:31:43;3.43;;;1.63;;
261;SDS011;114;48.260;10.988;2024-03-23T14:34:16;2.10;;;1.70;;
261;SDS011;114;48.260;10.988;2024-03-23T14:36:42;2.73;;;1.47;;
261;SDS011;114;48.260;10.988;2024-03-23T14:39:08;8.13;;;1.03;;
261;SDS011;114;48.260;10.988;2024-03-23T14:41:34;2.30;;;1.63;;
261;SDS011;114;48.260;10.988;2024-03-23T14:44:01;2.17;;;1.50;;
261;SDS011;114;48.260;10.988;2024-03-23T14:46:26;2.77;;;1.47;;
261;SDS011;114;48.260;10.988;2024-03-23T14:48:55;3.97;;;0.97;;
261;SDS011;114;48.260;10.988;2024-03-23T14:51:21;1.73;;;0.90;;
261;SDS011;114;48.260;10.988;2024-03-23T14:53:49;3.80;;;1.77;;
261;SDS011;114;48.260;10.988;2024-03-23T14:56:15;2.40;;;1.27;;
261;SDS011;114;48.260;10.988;2024-03-23T14:58:42;4.23;;;1.77;;
261;SDS011;114;48.260;10.988;2024-03-23T15:03:43;1.90;;;1.80;;
261;SDS011;114;48.260;10.988;2024-03-23T15:06:09;3.47;;;1.43;;
261;SDS011;114;48.260;10.988;2024-03-23T15:08:35;3.70;;;1.33;;
261;SDS011;114;48.260;10.988;2024-03-23T15:11:03;1.93;;;1.30;;
261;SDS011;114;48.260;10.988;2024-03-23T15:13:32;6.17;;;1.53;;
261;SDS011;114;48.260;10.988;2024-03-23T15:16:03;2.30;;;1.43;;
261;SDS011;114;48.260;10.988;2024-03-23T15:18:31;3.00;;;1.20;;
261;SDS011;114;48.260;10.988;2024-03-23T15:21:01;4.60;;;1.43;;
261;SDS011;114;48.260;10.988;2024-03-23T15:23:31;2.30;;;1.47;;
261;SDS011;114;48.260;10.988;2024-03-23T15:26:03;2.50;;;1.07;;
261;SDS011;114;48.260;10.988;2024-03-23T15:28:32;2.03;;;1.30;;
261;SDS011;114;48.260;10.988;2024-03-23T15:31:05;3.70;;;1.40;;
261;SDS011;114;48.260;10.988;2024-03-23T15:33:33;1.97;;;1.30;;
261;SDS011;114;48.260;10.988;2024-03-23T15:36:02;1.80;;;0.90;;
261;SDS011;114;48.260;10.988;2024-03-23T15:41:03;1.33;;;0.60;;
261;SDS011;114;48.260;10.988;2024-03-23T15:43:30;3.23;;;1.73;;
261;SDS011;114;48.260;10.988;2024-03-23T15:48:31;3.10;;;1.07;;
261;SDS011;114;48.260;10.988;2024-03-23T15:51:03;4.53;;;1.50;;
261;SDS011;114;48.260;10.988;2024-03-23T15:53:30;3.47;;;2.20;;
261;SDS011;114;48.260;10.988;2024-03-23T15:55:56;5.20;;;1.90;;
261;SDS011;114;48.260;10.988;2024-03-23T16:01:01;1.97;;;0.90;;
261;SDS011;114;48.260;10.988;2024-03-23T16:03:35;3.70;;;1.57;;
261;SDS011;114;48.260;10.988;2024-03-23T16:06:04;0.80;;;0.60;;
261;SDS011;114;48.260;10.988;2024-03-23T16:08:31;2.13;;;1.27;;
261;SDS011;114;48.260;10.988;2024-03-23T16:11:05;3.70;;;1.67;;
261;SDS011;114;48.260;10.988;2024-03-23T16:16:03;3.97;;;1.87;;
261;SDS011;114;48.260;10.988;2024-03-23T16:18:32;4.77;;;2.23;;
261;SDS011;114;48.260;10.988;2024-03-23T16:21:00;7.17;;;1.30;;
261;SDS011;114;48.260;10.988;2024-03-23T16:23:31;3.57;;;1.40;;
261;SDS011;114;48.260;10.988;2024-03-23T16:25:58;3.63;;;1.20;;
261;SDS011;114;48.260;10.988;2024-03-23T16:28:31;7.90;;;1.90;;
261;SDS011;114;48.260;10.988;2024-03-23T16:33:27;13.40;;;2.90;;
261;SDS011;114;48.260;10.988;2024-03-23T16:38:33;8.07;;;2.07;;
261;SDS011;114;48.260;10.988;2024-03-23T16:41:10;7.93;;;2.87;;
261;SDS011;114;48.260;10.988;2024-03-23T16:43:44;9.47;;;2.23;;
261;SDS011;114;48.260;10.988;2024-03-23T16:51:13;5.77;;;1.57;;
261;SDS011;114;48.260;10.988;2024-03-23T16:56:11;3.30;;;2.40;;
261;SDS011;114;48.260;10.988;2024-03-23T16:58:39;7.67;;;2.80;;
261;SDS011;114;48.260;10.988;2024-03-23T17:01:06;9.20;;;4.33;;
261;SDS011;114;48.260;10.988;2024-03-23T17:06:18;4.63;;;3.27;;
261;SDS011;114;48.260;10.988;2024-03-23T17:08:46;7.50;;;2.80;;
261;SDS011;114;48.260;10.988;2024-03-23T17:11:15;4.33;;;1.87;;
261;SDS011;114;48.260;10.988;2024-03-23T17:13:45;5.13;;;2.13;;
261;SDS011;114;48.260;10.988;2024-03-23T17:18:46;3.07;;;0.70;;
261;SDS011;114;48.260;10.988;2024-03-23T17:21:12;1.80;;;0.60;;
261;SDS011;114;48.260;10.988;2024-03-23T17:23:39;5.73;;;1.33;;
261;SDS011;114;48.260;10.988;2024-03-23T17:26:04;1.47;;;0.70;;
261;SDS011;114;48.260;10.988;2024-03-23T17:28:31;1.77;;;0.83;;
261;SDS011;114;48.260;10.988;2024-03-23T17:30:57;2.53;;;0.47;;
261;SDS011;114;48.260;10.988;2024-03-23T17:33:23;2.20;;;0.60;;
261;SDS011;114;48.260;10.988;2024-03-23T17:35:51;0.83;;;0.40;;